Time;durP1;ratioP1;P1;durP2;ratioP2;P2;SDS_P1;SDS_P2;PMS_P1;PMS_P2;Temp;Humidity;BMP_temperature;BMP_pressure;BME280_temperature;BME280_humidity;BME280_pressure;Samples;Min_cycle;Max_cycle;Signal;HPM_P1;HPM_P2
2022/12/12 00:01:46;;;;;;;3.77;3.10;;;3.30;99.90;;;;;;5093948;28;20204;-72
2022/12/12 00:04:16;;;;;;;3.40;2.70;;;3.30;99.90;;;;;;5093674;28;20203;-72
2022/12/12 00:06:45;;;;;;;4.97;2.97;;;3.20;99.90;;;;;;5093400;28;20292;-72
2022/12/12 00:09:14;;;;;;;2.97;2.53;;;3.20;99.90;;;;;;5091978;28;20209;-74
2022/12/12 00:11:43;;;;;;;4.10;3.00;;;3.20;99.90;;;;;;5093550;28;20589;-74
2022/12/12 00:14:12;;;;;;;4.43;3.30;;;3.20;99.90;;;;;;5096375;28;20195;-74
2022/12/12 00:16:41;;;;;;;11.30;5.30;;;3.10;99.90;;;;;;5114290;28;20211;-72
2022/12/12 00:19:09;;;;;;;4.90;3.63;;;3.20;99.90;;;;;;5113954;28;20210;-74
2022/12/12 00:21:39;;;;;;;12.20;5.13;;;3.10;99.90;;;;;;5113601;28;20677;-73
2022/12/12 00:24:08;;;;;;;10.63;4.63;;;3.20;99.90;;;;;;5113276;28;20192;-73
2022/12/12 00:26:37;;;;;;;12.77;4.90;;;3.10;99.90;;;;;;5109343;28;20202;-81
2022/12/12 00:29:06;;;;;;;9.17;4.13;;;3.20;99.90;;;;;;5093163;28;20201;-79
2022/12/12 00:31:34;;;;;;;5.23;4.00;;;3.10;99.90;;;;;;5093114;28;20238;-80
2022/12/12 00:34:03;;;;;;;5.63;3.93;;;3.20;99.90;;;;;;5074301;28;20205;-78
2022/12/12 00:36:32;;;;;;;7.30;4.30;;;3.10;99.90;;;;;;5092685;28;20236;-78
2022/12/12 00:39:02;;;;;;;9.07;5.10;;;3.10;99.90;;;;;;5092904;28;20199;-84
2022/12/12 00:41:31;;;;;;;8.43;4.60;;;3.10;99.90;;;;;;5092818;28;20194;-85
2022/12/12 00:43:59;;;;;;;12.43;5.17;;;3.10;99.90;;;;;;5094380;28;20194;-83
2022/12/12 00:46:28;;;;;;;7.37;5.07;;;3.10;99.90;;;;;;5113256;28;20551;-84
2022/12/12 00:48:58;;;;;;;5.73;4.60;;;3.00;99.90;;;;;;5113067;28;20222;-84
2022/12/12 00:51:29;;;;;;;8.40;5.00;;;3.00;99.90;;;;;;5113084;28;20242;-82
2022/12/12 00:53:58;;;;;;;9.33;4.60;;;3.00;99.90;;;;;;5112662;28;20222;-86
2022/12/12 00:56:29;;;;;;;7.30;4.57;;;3.00;99.90;;;;;;5112756;28;20228;-81
2022/12/12 00:58:58;;;;;;;9.50;4.73;;;3.00;99.90;;;;;;5111885;28;20691;-81
2022/12/12 01:01:28;;;;;;;6.27;4.30;;;2.90;99.90;;;;;;5112937;28;20390;-73
2022/12/12 01:03:58;;;;;;;7.73;3.97;;;2.90;99.90;;;;;;5112402;28;20212;-73
2022/12/12 01:06:28;;;;;;;6.43;4.20;;;2.90;99.90;;;;;;5112705;28;20577;-83
2022/12/12 01:08:57;;;;;;;5.40;3.70;;;2.90;99.90;;;;;;5112853;28;20223;-84
2022/12/12 01:11:27;;;;;;;4.73;3.70;;;2.90;99.90;;;;;;5113249;28;20189;-85
2022/12/12 01:13:57;;;;;;;4.13;3.67;;;2.90;99.90;;;;;;5111980;28;20677;-79
2022/12/12 01:16:26;;;;;;;5.87;3.80;;;2.90;99.90;;;;;;5112463;28;20204;-84
2022/12/12 01:18:54;;;;;;;5.87;3.93;;;2.90;99.90;;;;;;5112547;28;20227;-74
2022/12/12 01:21:24;;;;;;;6.40;4.27;;;3.00;99.90;;;;;;5112641;28;20214;-84
2022/12/12 01:23:52;;;;;;;5.43;4.00;;;3.00;99.90;;;;;;5111855;28;20471;-86
2022/12/12 01:26:23;;;;;;;6.73;4.07;;;2.90;99.90;;;;;;5112352;28;20684;-84
2022/12/12 01:28:54;;;;;;;5.30;3.30;;;2.80;99.90;;;;;;5112300;28;20210;-85
2022/12/12 01:31:22;;;;;;;6.50;3.80;;;2.80;99.90;;;;;;5112704;28;20602;-84
2022/12/12 01:33:51;;;;;;;4.73;3.57;;;2.80;99.90;;;;;;5093851;28;20578;-76
2022/12/12 01:36:23;;;;;;;4.53;3.50;;;2.80;99.90;;;;;;5112007;28;20229;-86
2022/12/12 01:38:53;;;;;;;4.43;3.23;;;2.70;99.90;;;;;;5112200;28;20199;-74
2022/12/12 01:41:23;;;;;;;5.17;3.03;;;2.70;99.90;;;;;;5091796;28;20229;-80
2022/12/12 01:43:52;;;;;;;4.03;3.17;;;2.70;99.90;;;;;;5090940;28;20227;-85
2022/12/12 01:46:38;;;;;;;5.77;3.27;;;2.70;99.90;;;;;;5112835;28;20212;-78
2022/12/12 01:49:12;;;;;;;4.07;2.70;;;2.60;99.90;;;;;;5112579;28;20192;-86
2022/12/12 01:51:42;;;;;;;2.63;2.43;;;2.60;99.90;;;;;;5112084;28;20256;-83
2022/12/12 01:54:14;;;;;;;3.47;3.20;;;2.60;99.90;;;;;;5111722;28;20199;-75
2022/12/12 01:56:45;;;;;;;3.97;3.23;;;2.60;99.90;;;;;;5111684;28;20196;-85
2022/12/12 01:59:17;;;;;;;4.53;2.77;;;2.60;99.90;;;;;;5111494;28;20214;-74
2022/12/12 02:01:46;;;;;;;3.13;2.80;;;2.60;99.90;;;;;;5111661;28;20210;-76
2022/12/12 02:04:16;;;;;;;4.67;2.87;;;2.60;99.90;;;;;;5111511;28;20275;-84
2022/12/12 02:06:46;;;;;;;4.07;3.10;;;2.60;99.90;;;;;;5111428;28;20614;-84
2022/12/12 02:09:17;;;;;;;3.80;3.13;;;2.50;99.90;;;;;;5093365;28;20673;-83
2022/12/12 02:11:47;;;;;;;5.77;3.23;;;2.50;99.90;;;;;;5111206;28;20282;-85
2022/12/12 02:14:20;;;;;;;8.20;3.00;;;2.50;99.90;;;;;;5110959;28;20677;-80
2022/12/12 02:17:14;;;;;;;3.63;2.60;;;2.50;99.90;;;;;;5111301;28;20245;-84
2022/12/12 02:20:24;;;;;;;5.03;3.17;;;2.50;99.90;;;;;;5111424;28;20219;-83
2022/12/12 02:23:20;;;;;;;2.83;2.63;;;2.50;99.90;;;;;;5110512;28;20579;-81
2022/12/12 02:26:16;;;;;;;3.87;3.33;;;2.50;99.90;;;;;;5048260;28;20304;-84
2022/12/12 02:29:09;;;;;;;3.30;2.80;;;2.50;99.90;;;;;;5048243;28;20194;-84
2022/12/12 02:31:46;;;;;;;4.73;2.83;;;2.60;99.90;;;;;;5008707;28;20260;-80
2022/12/12 02:34:26;;;;;;;4.87;3.23;;;2.60;99.90;;;;;;5008557;28;20210;-80
2022/12/12 02:37:00;;;;;;;3.03;2.50;;;2.70;99.90;;;;;;5008295;28;20280;-81
2022/12/12 02:39:37;;;;;;;3.63;3.07;;;2.60;99.90;;;;;;5008747;28;20261;-79
2022/12/12 02:42:13;;;;;;;3.67;3.37;;;2.60;99.90;;;;;;5008651;28;20198;-81
2022/12/12 02:44:45;;;;;;;3.67;2.90;;;2.60;99.90;;;;;;5008160;28;20207;-80
2022/12/12 02:47:19;;;;;;;4.33;3.13;;;2.60;99.90;;;;;;5008801;28;20251;-82
2022/12/12 02:49:52;;;;;;;3.50;3.20;;;2.60;99.90;;;;;;5008593;28;20317;-81
2022/12/12 02:52:21;;;;;;;3.10;2.90;;;2.70;99.90;;;;;;5008717;28;20199;-80
2022/12/12 02:54:49;;;;;;;5.20;3.73;;;2.70;99.90;;;;;;5008346;28;20201;-82
2022/12/12 02:57:19;;;;;;;3.73;3.43;;;2.60;99.90;;;;;;5008447;28;20210;-80
2022/12/12 02:59:51;;;;;;;51.37;23.97;;;2.60;99.90;;;;;;5008416;28;20203;-74
2022/12/12 03:02:52;;;;;;;8.80;6.80;;;2.60;99.90;;;;;;5011807;28;20203;-83
2022/12/12 03:08:40;;;;;;;6.37;3.50;;;2.60;99.90;;;;;;5009510;28;20226;-82
2022/12/12 03:11:13;;;;;;;4.40;4.00;;;2.50;99.90;;;;;;5068223;28;20209;-79
2022/12/12 03:13:47;;;;;;;4.87;3.60;;;2.60;99.90;;;;;;5068675;28;20713;-75
2022/12/12 03:16:26;;;;;;;3.70;3.40;;;2.60;99.90;;;;;;5068771;28;20211;-80
2022/12/12 03:19:01;;;;;;;5.83;3.53;;;2.70;99.90;;;;;;5068983;28;20228;-81
2022/12/12 03:21:37;;;;;;;5.77;3.67;;;2.60;99.90;;;;;;5069098;28;20201;-78
2022/12/12 03:24:11;;;;;;;4.90;3.07;;;2.60;99.90;;;;;;5072714;28;20204;-82
2022/12/12 03:26:45;;;;;;;5.00;3.23;;;2.60;99.90;;;;;;5072606;28;20688;-81
2022/12/12 03:29:19;;;;;;;5.17;3.10;;;2.60;99.90;;;;;;5072680;28;20243;-78
2022/12/12 03:31:55;;;;;;;4.97;3.30;;;2.60;99.90;;;;;;5072565;28;20228;-79
2022/12/12 03:34:29;;;;;;;3.37;3.07;;;2.60;99.90;;;;;;5072592;28;20197;-77
2022/12/12 03:37:05;;;;;;;4.73;3.20;;;2.60;99.90;;;;;;5067961;28;20236;-82
2022/12/12 03:39:38;;;;;;;4.43;3.70;;;2.60;99.90;;;;;;5072486;28;20280;-77
2022/12/12 03:42:11;;;;;;;4.90;3.67;;;2.60;99.90;;;;;;5091409;27;20704;-80
2022/12/12 03:44:44;;;;;;;5.60;3.83;;;2.60;99.90;;;;;;5120589;27;20662;-83
2022/12/12 03:47:17;;;;;;;4.20;3.67;;;2.60;99.90;;;;;;5115288;28;20192;-84
2022/12/12 03:49:50;;;;;;;4.33;3.47;;;2.70;99.90;;;;;;5096844;28;20233;-84
2022/12/12 03:52:25;;;;;;;8.83;5.67;;;2.60;99.90;;;;;;5115112;28;20257;-84
2022/12/12 03:54:59;;;;;;;11.03;6.17;;;2.70;99.90;;;;;;5115059;28;20191;-83
2022/12/12 03:57:33;;;;;;;3.10;2.90;;;2.70;99.90;;;;;;5115012;28;20192;-84
2022/12/12 04:00:05;;;;;;;4.07;2.83;;;2.70;99.90;;;;;;5114874;28;20202;-83
2022/12/12 04:02:44;;;;;;;3.57;3.20;;;2.70;99.90;;;;;;5114951;28;20667;-80
2022/12/12 04:05:18;;;;;;;6.10;2.80;;;2.70;99.90;;;;;;5108119;28;20193;-81
2022/12/12 04:07:52;;;;;;;2.97;2.60;;;2.70;99.90;;;;;;5129076;27;20195;-83
2022/12/12 04:13:16;;;;;;;5.60;4.10;;;2.80;99.90;;;;;;5135431;27;20282;-83
2022/12/12 04:16:02;;;;;;;7.13;3.50;;;2.70;99.90;;;;;;5135167;27;20191;-74
2022/12/12 04:18:37;;;;;;;5.13;2.97;;;2.70;99.90;;;;;;5135279;27;20573;-80
2022/12/12 04:24:14;;;;;;;8.77;5.03;;;2.70;99.90;;;;;;5051634;28;20215;-81
2022/12/12 04:26:47;;;;;;;4.73;3.03;;;2.70;99.90;;;;;;5051756;28;20215;-83
2022/12/12 04:29:28;;;;;;;3.57;3.27;;;2.70;99.90;;;;;;5051578;28;20677;-83
2022/12/12 04:32:02;;;;;;;2.93;2.73;;;2.60;99.90;;;;;;5051547;28;20204;-85
2022/12/12 04:34:37;;;;;;;5.20;4.00;;;2.60;99.90;;;;;;5034231;28;20304;-81
2022/12/12 04:37:09;;;;;;;4.40;3.83;;;2.60;99.90;;;;;;5031484;28;20261;-85
2022/12/12 04:39:43;;;;;;;9.40;5.70;;;2.60;99.90;;;;;;5031654;28;20304;-78
2022/12/12 04:42:17;;;;;;;6.40;4.93;;;2.50;99.90;;;;;;5031274;28;20268;-78
2022/12/12 04:44:47;;;;;;;10.40;3.80;;;2.50;99.90;;;;;;5031448;28;20198;-77
2022/12/12 04:47:17;;;;;;;4.40;3.37;;;2.40;99.90;;;;;;4955947;28;20612;-81
2022/12/12 04:49:46;;;;;;;4.03;2.93;;;2.40;99.90;;;;;;4972583;28;20217;-74
2022/12/12 04:52:17;;;;;;;6.70;2.97;;;2.50;99.90;;;;;;4972407;28;20243;-82
2022/12/12 04:54:50;;;;;;;9.50;4.60;;;2.50;99.90;;;;;;4972255;28;20216;-81
2022/12/12 04:57:24;;;;;;;6.27;3.77;;;2.50;99.90;;;;;;4972355;28;20296;-74
2022/12/12 04:59:53;;;;;;;11.73;7.27;;;2.50;99.90;;;;;;4972189;28;20348;-76
2022/12/12 05:02:30;;;;;;;15.57;8.93;;;2.60;99.90;;;;;;5042381;28;20597;-78
2022/12/12 05:05:02;;;;;;;15.17;6.23;;;2.60;99.90;;;;;;5069709;28;20283;-78
2022/12/12 05:07:34;;;;;;;9.80;5.37;;;2.60;99.90;;;;;;5113706;28;20799;-77
2022/12/12 05:10:11;;;;;;;8.20;4.70;;;2.60;99.90;;;;;;5113786;28;20189;-86
2022/12/12 05:12:42;;;;;;;7.73;4.53;;;2.60;99.90;;;;;;5113538;28;20210;-83
2022/12/12 05:15:11;;;;;;;6.07;3.37;;;2.60;99.90;;;;;;5113537;28;20225;-74
2022/12/12 05:17:45;;;;;;;5.07;3.23;;;2.60;99.90;;;;;;5095185;28;20196;-85
2022/12/12 05:20:14;;;;;;;6.33;4.60;;;2.60;99.90;;;;;;5111345;28;20263;-84
2022/12/12 05:22:43;;;;;;;9.00;5.77;;;2.60;99.90;;;;;;5113994;28;20204;-81
2022/12/12 05:25:14;;;;;;;18.57;11.77;;;2.60;99.90;;;;;;5113297;28;20202;-83
2022/12/12 05:27:42;;;;;;;18.20;11.40;;;2.60;99.90;;;;;;5113111;28;20229;-82
2022/12/12 05:30:12;;;;;;;9.67;5.97;;;2.60;99.90;;;;;;5125421;27;20209;-83
2022/12/12 05:32:40;;;;;;;6.30;5.03;;;2.70;99.90;;;;;;5133639;27;20284;-79
2022/12/12 05:35:10;;;;;;;4.60;4.20;;;2.70;99.90;;;;;;5133444;27;20276;-81
2022/12/12 05:37:39;;;;;;;3.87;3.40;;;2.70;99.90;;;;;;5133801;27;20649;-83
2022/12/12 05:40:09;;;;;;;4.53;4.00;;;2.70;99.90;;;;;;5133506;27;20247;-81
2022/12/12 05:42:40;;;;;;;7.17;4.87;;;2.80;99.90;;;;;;5133781;27;20197;-84
2022/12/12 05:45:10;;;;;;;11.37;6.83;;;2.70;99.90;;;;;;5132458;27;20200;-84
2022/12/12 05:47:40;;;;;;;7.77;5.30;;;2.70;99.90;;;;;;5112602;28;20218;-83
2022/12/12 05:50:09;;;;;;;12.30;7.77;;;2.80;99.90;;;;;;5112513;28;20264;-85
2022/12/12 05:52:40;;;;;;;5.60;4.47;;;2.90;99.90;;;;;;5049694;28;20695;-83
2022/12/12 05:55:09;;;;;;;6.30;4.50;;;2.90;99.90;;;;;;5049990;28;20207;-81
2022/12/12 05:57:39;;;;;;;3.37;2.97;;;2.80;99.90;;;;;;5049889;28;20256;-82
2022/12/12 06:00:09;;;;;;;6.40;2.80;;;2.80;99.90;;;;;;5049761;28;20227;-86
2022/12/12 06:02:40;;;;;;;5.27;3.33;;;2.80;99.90;;;;;;4951697;29;20658;-85
2022/12/12 06:05:09;;;;;;;4.73;3.43;;;2.70;99.90;;;;;;4935670;29;20260;-84
2022/12/12 06:07:38;;;;;;;7.77;3.77;;;2.70;99.90;;;;;;4952115;29;20208;-89
2022/12/12 06:10:08;;;;;;;5.10;3.20;;;2.70;99.90;;;;;;4942886;28;20222;-82
2022/12/12 06:12:38;;;;;;;7.53;4.40;;;2.70;99.90;;;;;;4999199;28;20235;-87
2022/12/12 06:15:08;;;;;;;9.40;4.70;;;2.70;99.90;;;;;;5010458;28;20210;-87
2022/12/12 06:17:36;;;;;;;8.70;4.70;;;2.70;99.90;;;;;;5007812;28;20262;-88
2022/12/12 06:20:09;;;;;;;6.13;4.10;;;2.70;99.90;;;;;;4998586;28;20240;-85
2022/12/12 06:22:38;;;;;;;4.57;3.67;;;2.70;99.90;;;;;;5089850;28;20732;-87
2022/12/12 06:25:10;;;;;;;5.33;3.47;;;2.70;99.90;;;;;;5089781;28;20291;-83
2022/12/12 06:27:41;;;;;;;7.77;4.80;;;2.70;99.90;;;;;;5099142;28;20203;-84
2022/12/12 06:30:10;;;;;;;8.20;4.90;;;2.70;99.90;;;;;;5126545;27;20274;-83
2022/12/12 06:32:39;;;;;;;8.47;4.00;;;2.70;99.90;;;;;;5111646;28;20192;-84
2022/12/12 06:35:08;;;;;;;8.27;4.00;;;2.70;99.90;;;;;;5111675;28;20185;-84
2022/12/12 06:37:38;;;;;;;7.07;4.77;;;2.70;99.90;;;;;;5111867;28;20603;-78
2022/12/12 06:40:08;;;;;;;4.77;3.53;;;2.60;99.90;;;;;;5111492;28;20217;-85
2022/12/12 06:42:36;;;;;;;7.07;3.80;;;2.60;99.90;;;;;;5111212;28;20278;-82
2022/12/12 06:45:10;;;;;;;5.20;4.53;;;2.60;99.90;;;;;;5111124;28;20203;-79
2022/12/12 06:47:39;;;;;;;5.30;4.57;;;2.60;99.90;;;;;;5110193;28;20282;-86
2022/12/12 06:50:08;;;;;;;10.53;5.80;;;2.50;99.90;;;;;;5112091;28;20298;-81
2022/12/12 06:52:36;;;;;;;15.30;8.27;;;2.50;99.90;;;;;;5112062;28;20537;-86
2022/12/12 06:55:05;;;;;;;28.17;15.17;;;2.60;99.90;;;;;;5112064;28;20192;-75
2022/12/12 06:57:34;;;;;;;35.77;16.67;;;2.50;99.90;;;;;;5113963;28;20193;-76
2022/12/12 07:00:04;;;;;;;25.07;11.27;;;2.50;99.90;;;;;;5111661;27;20219;-72
2022/12/12 07:02:35;;;;;;;16.93;9.73;;;2.60;99.90;;;;;;5106391;28;20193;-86
2022/12/12 07:05:03;;;;;;;17.03;8.77;;;2.60;99.90;;;;;;5100128;28;20608;-81
2022/12/12 07:07:32;;;;;;;14.20;8.87;;;2.60;99.90;;;;;;5116528;28;20217;-78
2022/12/12 07:10:01;;;;;;;16.40;8.43;;;2.60;99.90;;;;;;5103270;27;20229;-81
2022/12/12 07:12:29;;;;;;;20.73;9.53;;;2.60;99.90;;;;;;5110163;28;20609;-84
2022/12/12 07:15:01;;;;;;;12.77;7.20;;;2.60;99.90;;;;;;5107273;28;20192;-84
2022/12/12 07:17:29;;;;;;;14.17;6.57;;;2.70;99.90;;;;;;5107091;28;20227;-88
2022/12/12 07:19:59;;;;;;;15.70;6.10;;;2.70;99.90;;;;;;5096603;28;20239;-86
2022/12/12 07:22:28;;;;;;;12.73;6.87;;;2.70;99.90;;;;;;5096965;28;20283;-88
2022/12/12 07:24:57;;;;;;;15.47;6.03;;;2.70;99.90;;;;;;5096444;28;20788;-85
2022/12/12 07:27:25;;;;;;;10.67;5.57;;;2.80;99.90;;;;;;5095709;28;20205;-74
2022/12/12 07:29:54;;;;;;;11.10;6.20;;;2.80;99.90;;;;;;5094937;28;20200;-76
2022/12/12 07:32:26;;;;;;;10.87;7.43;;;2.80;99.90;;;;;;5077180;28;20204;-89
2022/12/12 07:34:54;;;;;;;13.20;7.83;;;2.80;99.90;;;;;;5101754;27;20200;-82
2022/12/12 07:37:24;;;;;;;16.47;8.63;;;2.80;99.90;;;;;;5115989;28;20316;-85
2022/12/12 07:39:54;;;;;;;13.77;10.03;;;2.80;99.90;;;;;;5107196;27;20299;-85
2022/12/12 07:42:22;;;;;;;13.77;8.63;;;2.90;99.90;;;;;;5099950;27;20202;-82
2022/12/12 07:44:51;;;;;;;21.10;12.33;;;2.90;99.90;;;;;;5115498;28;20226;-88
2022/12/12 07:47:20;;;;;;;19.93;12.70;;;2.90;99.90;;;;;;5104653;27;20253;-81
2022/12/12 07:49:48;;;;;;;17.73;11.17;;;2.90;99.90;;;;;;5100763;27;20201;-81
2022/12/12 07:52:17;;;;;;;17.90;10.70;;;2.90;99.90;;;;;;5113229;28;20188;-82
2022/12/12 07:54:47;;;;;;;14.27;10.00;;;2.90;99.90;;;;;;5115746;28;20661;-81
2022/12/12 07:57:15;;;;;;;14.33;9.87;;;2.90;99.90;;;;;;5115167;28;20195;-83
2022/12/12 07:59:44;;;;;;;20.87;10.83;;;3.00;99.90;;;;;;5115331;28;20203;-78
2022/12/12 08:02:12;;;;;;;37.57;21.13;;;3.10;99.90;;;;;;5115192;28;20231;-91
2022/12/12 08:04:41;;;;;;;19.43;11.87;;;3.10;99.90;;;;;;5116022;28;20188;-90
2022/12/12 08:07:09;;;;;;;16.10;9.50;;;3.10;99.90;;;;;;5113596;28;20220;-86
2022/12/12 08:09:39;;;;;;;15.77;10.50;;;3.20;99.90;;;;;;5109082;28;20196;-85
2022/12/12 08:12:09;;;;;;;19.90;10.83;;;3.20;99.90;;;;;;5114140;28;20265;-83
2022/12/12 08:14:38;;;;;;;19.87;12.17;;;3.20;99.90;;;;;;5117461;28;20176;-91
2022/12/12 08:17:07;;;;;;;21.20;12.93;;;3.20;99.90;;;;;;5117057;28;20185;-89
2022/12/12 08:19:36;;;;;;;23.97;14.57;;;3.30;99.90;;;;;;5117674;28;20181;-81
2022/12/12 08:22:05;;;;;;;27.20;15.90;;;3.30;99.90;;;;;;5115358;28;20268;-88
2022/12/12 08:24:33;;;;;;;28.03;16.07;;;3.30;99.90;;;;;;5107961;27;20194;-76
2022/12/12 08:27:02;;;;;;;24.07;13.90;;;3.30;99.90;;;;;;5105051;28;20221;-74
2022/12/12 08:29:32;;;;;;;26.80;17.30;;;3.20;99.90;;;;;;5093915;28;20200;-74
2022/12/12 08:32:01;;;;;;;23.10;14.87;;;3.20;99.90;;;;;;5094260;28;20201;-73
2022/12/12 08:34:32;;;;;;;23.47;14.60;;;3.10;99.90;;;;;;5099337;28;20200;-90
2022/12/12 08:37:00;;;;;;;16.67;10.73;;;3.10;99.90;;;;;;5127645;27;20697;-75
2022/12/12 08:39:29;;;;;;;14.20;9.30;;;3.20;99.90;;;;;;5112937;27;20303;-83
2022/12/12 08:41:57;;;;;;;20.23;13.27;;;3.20;99.90;;;;;;5110909;27;20231;-85
2022/12/12 08:44:26;;;;;;;11.33;7.93;;;3.20;99.90;;;;;;5123374;27;20201;-82
2022/12/12 08:46:56;;;;;;;17.77;12.47;;;3.20;99.90;;;;;;5111873;28;20206;-76
2022/12/12 08:49:25;;;;;;;22.63;11.33;;;3.20;99.90;;;;;;5114144;28;20251;-78
2022/12/12 08:51:53;;;;;;;14.90;10.27;;;3.20;99.90;;;;;;5113737;27;20198;-83
2022/12/12 08:54:22;;;;;;;25.97;15.93;;;3.30;99.90;;;;;;5106838;28;20274;-87
2022/12/12 08:56:51;;;;;;;19.00;11.70;;;3.20;99.90;;;;;;5108694;28;20188;-80
2022/12/12 08:59:20;;;;;;;18.73;12.73;;;3.30;99.90;;;;;;5096098;28;20202;-84
2022/12/12 09:01:49;;;;;;;24.40;12.47;;;3.30;99.90;;;;;;5109393;28;20215;-81
2022/12/12 09:04:19;;;;;;;10.47;7.10;;;3.30;99.90;;;;;;5113875;28;20279;-86
2022/12/12 09:06:48;;;;;;;12.80;7.73;;;3.30;99.90;;;;;;5113365;28;20191;-74
2022/12/12 09:09:16;;;;;;;13.07;7.03;;;3.30;99.90;;;;;;5113562;28;20271;-80
2022/12/12 09:11:45;;;;;;;11.43;6.03;;;3.30;99.90;;;;;;5113336;28;20398;-87
2022/12/12 09:14:14;;;;;;;11.97;7.20;;;3.30;99.90;;;;;;5107561;28;20232;-81
2022/12/12 09:16:42;;;;;;;12.10;7.80;;;3.40;99.90;;;;;;5100632;27;20192;-80
2022/12/12 09:19:11;;;;;;;10.13;6.10;;;3.40;99.90;;;;;;5094349;27;20188;-80
2022/12/12 09:21:41;;;;;;;9.73;6.63;;;3.40;99.90;;;;;;5092090;28;20210;-80
2022/12/12 09:24:10;;;;;;;16.43;9.23;;;3.50;99.90;;;;;;5112977;28;20204;-85
2022/12/12 09:26:39;;;;;;;17.20;10.10;;;3.50;99.90;;;;;;5113316;28;20201;-85
2022/12/12 09:29:08;;;;;;;16.27;10.93;;;3.50;99.90;;;;;;5113361;28;20205;-79
2022/12/12 09:31:36;;;;;;;20.97;10.60;;;3.50;99.90;;;;;;5094872;28;20568;-86
2022/12/12 09:34:05;;;;;;;20.10;11.43;;;3.60;99.90;;;;;;5113106;28;20208;-84
2022/12/12 09:36:33;;;;;;;16.67;10.37;;;3.60;99.90;;;;;;5113048;28;20283;-84
2022/12/12 09:39:04;;;;;;;18.57;10.00;;;3.70;99.90;;;;;;4993947;28;20303;-82
2022/12/12 09:41:32;;;;;;;22.13;9.97;;;3.70;99.90;;;;;;5007085;28;20229;-79
2022/12/12 09:44:04;;;;;;;25.47;11.10;;;3.70;99.90;;;;;;5032399;28;20205;-83
2022/12/12 09:46:37;;;;;;;14.33;7.63;;;3.70;99.90;;;;;;5031993;28;20726;-73
2022/12/12 09:49:14;;;;;;;16.43;9.57;;;3.70;99.90;;;;;;5030966;28;20290;-81
2022/12/12 09:51:46;;;;;;;10.80;7.43;;;3.60;99.90;;;;;;5030855;28;20199;-79
2022/12/12 09:54:19;;;;;;;5.20;4.70;;;3.70;99.90;;;;;;5031026;28;20234;-88
2022/12/12 09:57:05;;;;;;;9.80;5.30;;;3.70;99.90;;;;;;5031032;28;20197;-89
2022/12/12 09:59:41;;;;;;;7.73;5.70;;;3.60;99.90;;;;;;4996613;28;20204;-88
2022/12/12 10:02:38;;;;;;;6.40;5.27;;;3.60;99.90;;;;;;5010609;28;20246;-88
2022/12/12 10:05:21;;;;;;;7.40;4.37;;;3.50;99.90;;;;;;5112232;28;20265;-85
2022/12/12 10:07:59;;;;;;;7.10;4.63;;;3.50;99.90;;;;;;5112714;28;20199;-73
2022/12/12 10:10:34;;;;;;;6.00;5.40;;;3.50;99.90;;;;;;5113303;28;20197;-87
2022/12/12 10:13:05;;;;;;;6.33;4.80;;;3.50;99.90;;;;;;5113440;28;20226;-77
2022/12/12 10:15:40;;;;;;;9.57;6.13;;;3.50;99.90;;;;;;5010606;28;20208;-77
2022/12/12 10:18:14;;;;;;;17.57;7.77;;;3.50;99.90;;;;;;5010124;28;20211;-90
2022/12/12 10:20:47;;;;;;;20.00;9.50;;;3.50;99.90;;;;;;5010484;28;20271;-80
2022/12/12 10:23:21;;;;;;;18.37;10.20;;;3.50;99.90;;;;;;5010187;28;20594;-80
2022/12/12 10:25:56;;;;;;;21.40;12.70;;;3.60;99.90;;;;;;5010382;28;20205;-76
2022/12/12 10:28:27;;;;;;;44.87;22.53;;;3.60;99.90;;;;;;5010468;28;20211;-73
2022/12/12 10:31:20;;;;;;;39.43;22.67;;;3.60;99.90;;;;;;5010293;28;20200;-81
2022/12/12 10:34:05;;;;;;;27.87;17.80;;;3.70;99.90;;;;;;5075625;27;20304;-79
2022/12/12 10:36:58;;;;;;;32.97;19.87;;;3.70;99.90;;;;;;5132789;27;20280;-87
2022/12/12 10:39:34;;;;;;;32.77;19.80;;;3.70;99.90;;;;;;5133537;28;20185;-81
2022/12/12 10:42:15;;;;;;;35.83;20.97;;;3.80;99.90;;;;;;5133253;28;20237;-88
2022/12/12 10:44:57;;;;;;;36.47;21.37;;;3.80;99.90;;;;;;5134911;28;20187;-75
2022/12/12 10:47:26;;;;;;;38.13;22.53;;;3.90;99.90;;;;;;5134776;28;20185;-81
2022/12/12 10:50:02;;;;;;;38.07;22.23;;;4.00;99.90;;;;;;5116994;28;20196;-82
2022/12/12 10:52:34;;;;;;;39.33;21.60;;;4.00;99.90;;;;;;5135384;28;20202;-80
2022/12/12 10:55:09;;;;;;;28.30;16.53;;;4.00;99.90;;;;;;5132622;28;20191;-76
2022/12/12 10:57:39;;;;;;;14.80;8.97;;;3.90;99.90;;;;;;5133302;28;20600;-83
2022/12/12 11:00:17;;;;;;;11.97;7.97;;;3.80;99.90;;;;;;5134571;28;20206;-90
2022/12/12 11:02:46;;;;;;;9.77;5.80;;;3.80;99.90;;;;;;5136131;28;20219;-76
2022/12/12 11:05:20;;;;;;;11.10;6.23;;;3.70;99.90;;;;;;5136847;28;20199;-75
2022/12/12 11:07:57;;;;;;;11.97;6.73;;;3.80;99.90;;;;;;5137224;28;20253;-75
2022/12/12 11:10:28;;;;;;;11.00;6.80;;;3.80;99.90;;;;;;5132880;28;20200;-74
2022/12/12 11:13:13;;;;;;;8.83;7.37;;;3.80;99.90;;;;;;5136041;28;20215;-79
2022/12/12 11:15:49;;;;;;;8.70;5.50;;;3.90;99.90;;;;;;5123667;28;20200;-88
2022/12/12 11:18:19;;;;;;;4.90;4.40;;;3.90;99.90;;;;;;5114168;28;20220;-81
2022/12/12 11:20:50;;;;;;;9.37;5.50;;;4.00;99.90;;;;;;5112387;28;20243;-74
2022/12/12 11:23:22;;;;;;;4.47;3.90;;;4.10;99.90;;;;;;5112899;28;20559;-88
2022/12/12 11:25:57;;;;;;;4.50;3.80;;;4.00;99.90;;;;;;5102712;28;20358;-88
2022/12/12 11:28:30;;;;;;;8.63;4.70;;;4.00;99.90;;;;;;5117373;28;20667;-72
2022/12/12 11:31:05;;;;;;;9.77;5.27;;;4.00;99.90;;;;;;5112728;28;20201;-89
2022/12/12 11:33:38;;;;;;;11.00;5.20;;;4.00;99.90;;;;;;5108210;28;20264;-87
2022/12/12 11:36:07;;;;;;;9.07;4.93;;;3.90;99.90;;;;;;5107118;28;20299;-85
2022/12/12 11:38:41;;;;;;;7.37;4.73;;;4.00;99.90;;;;;;5113357;28;20185;-85
2022/12/12 11:41:12;;;;;;;13.37;5.27;;;4.00;99.90;;;;;;5115328;28;20198;-88
2022/12/12 11:43:58;;;;;;;8.97;4.90;;;4.00;99.90;;;;;;5114887;28;20221;-77
2022/12/12 11:46:29;;;;;;;4.30;3.60;;;4.10;99.90;;;;;;5120572;28;20240;-93
2022/12/12 11:49:00;;;;;;;6.93;4.33;;;4.00;99.90;;;;;;5116372;28;20223;-75
2022/12/12 11:51:38;;;;;;;6.63;4.80;;;4.00;99.90;;;;;;5116385;28;20660;-88
2022/12/12 11:54:12;;;;;;;6.33;5.17;;;4.00;99.90;;;;;;5117254;28;20181;-72
2022/12/12 11:56:50;;;;;;;7.47;5.40;;;4.00;99.90;;;;;;5116367;28;20651;-75
2022/12/12 11:59:37;;;;;;;7.47;4.53;;;4.00;99.90;;;;;;5116301;28;20245;-77
2022/12/12 12:02:25;;;;;;;7.20;4.13;;;4.10;99.90;;;;;;5116165;28;20221;-83
2022/12/12 12:05:04;;;;;;;9.73;3.70;;;4.10;99.90;;;;;;5116175;28;20533;-75
2022/12/12 12:07:47;;;;;;;7.03;4.67;;;4.10;99.90;;;;;;5120322;27;20201;-82
2022/12/12 12:10:25;;;;;;;11.57;6.20;;;4.20;99.90;;;;;;5121812;27;20581;-73
2022/12/12 12:13:05;;;;;;;7.67;5.50;;;4.20;99.90;;;;;;5114733;28;20228;-76
2022/12/12 12:15:46;;;;;;;13.10;6.63;;;4.30;99.90;;;;;;5114862;28;20192;-75
2022/12/12 12:18:28;;;;;;;10.33;5.50;;;4.30;99.90;;;;;;5114288;28;20200;-75
2022/12/12 12:21:16;;;;;;;9.73;4.70;;;4.30;99.90;;;;;;5114638;28;20729;-80
2022/12/12 12:23:56;;;;;;;8.37;4.10;;;4.20;99.90;;;;;;5114509;28;20243;-76
2022/12/12 12:26:34;;;;;;;6.90;3.43;;;4.10;99.90;;;;;;5114129;28;20202;-75
2022/12/12 12:29:27;;;;;;;7.20;4.80;;;3.90;99.90;;;;;;5114113;28;20200;-76
2022/12/12 12:32:06;;;;;;;10.07;4.57;;;3.70;99.90;;;;;;5109040;27;20199;-77
2022/12/12 12:34:42;;;;;;;5.73;3.87;;;3.50;99.90;;;;;;5112428;28;20199;-81
2022/12/12 12:37:26;;;;;;;8.97;4.90;;;3.50;99.90;;;;;;5114929;28;20256;-75
2022/12/12 12:40:06;;;;;;;5.83;4.33;;;3.50;99.90;;;;;;5114424;28;20197;-85
2022/12/12 12:42:51;;;;;;;8.63;6.23;;;3.40;99.90;;;;;;5115303;28;20714;-75
2022/12/12 12:45:28;;;;;;;10.53;6.53;;;3.40;99.90;;;;;;5114229;28;20217;-77
2022/12/12 12:48:04;;;;;;;11.93;7.33;;;3.40;99.90;;;;;;5114417;28;20653;-81
2022/12/12 12:50:43;;;;;;;9.87;6.87;;;3.40;99.90;;;;;;5114244;28;20193;-86
2022/12/12 12:53:25;;;;;;;14.00;7.53;;;3.50;99.90;;;;;;5113950;28;20215;-79
2022/12/12 12:55:59;;;;;;;15.80;7.90;;;3.50;99.90;;;;;;5113776;28;20193;-86
2022/12/12 12:58:32;;;;;;;16.60;8.33;;;3.40;99.90;;;;;;5113865;28;20198;-86
2022/12/12 13:01:05;;;;;;;9.20;6.73;;;3.50;99.90;;;;;;5116632;27;20186;-80
2022/12/12 13:03:43;;;;;;;9.70;6.53;;;3.50;99.90;;;;;;5113156;27;20717;-83
2022/12/12 13:06:18;;;;;;;11.30;6.77;;;3.50;99.90;;;;;;5099380;28;20251;-77
2022/12/12 13:08:56;;;;;;;10.20;5.93;;;3.50;99.90;;;;;;5076121;28;20221;-76
2022/12/12 13:11:32;;;;;;;11.17;5.37;;;3.50;99.90;;;;;;5102094;28;20194;-84
2022/12/12 13:14:20;;;;;;;13.47;5.40;;;3.50;99.90;;;;;;5092982;28;20202;-86
2022/12/12 13:16:55;;;;;;;8.23;3.87;;;3.50;99.90;;;;;;5092960;28;20210;-75
2022/12/12 13:19:32;;;;;;;8.17;5.03;;;3.50;99.90;;;;;;5110844;27;20206;-77
2022/12/12 13:22:04;;;;;;;6.17;3.97;;;3.40;99.90;;;;;;5102386;28;20258;-74
2022/12/12 13:24:42;;;;;;;5.30;4.03;;;3.50;99.90;;;;;;5113274;28;20769;-74
2022/12/12 13:27:17;;;;;;;10.30;4.77;;;3.50;99.90;;;;;;5113694;28;20197;-75
2022/12/12 13:29:50;;;;;;;9.87;5.13;;;3.40;99.90;;;;;;5113195;28;20250;-73